sensor_id;sensor_type;location;lat;lon;timestamp;temperature;humidity
23499;DHT22;11926;48.120;11.562;2023-02-27T00:01:34;-0.20;92.00
23499;DHT22;11926;48.120;11.562;2023-02-27T00:04:22;-0.30;91.90
23499;DHT22;11926;48.120;11.562;2023-02-27T00:07:09;-0.30;92.00
23499;DHT22;11926;48.120;11.562;2023-02-27T00:09:58;-0.40;92.00
23499;DHT22;11926;48.120;11.562;2023-02-27T00:12:46;-0.40;92.00
23499;DHT22;11926;48.120;11.562;2023-02-27T00:15:33;-0.40;92.10
23499;DHT22;11926;48.120;11.562;2023-02-27T00:18:23;-0.50;92.00
23499;DHT22;11926;48.120;11.562;2023-02-27T00:21:11;-0.50;92.10
23499;DHT22;11926;48.120;11.562;2023-02-27T00:23:59;-0.60;92.20
23499;DHT22;11926;48.120;11.562;2023-02-27T00:26:49;-0.50;92.60
23499;DHT22;11926;48.120;11.562;2023-02-27T00:29:38;-0.60;92.20
23499;DHT22;11926;48.120;11.562;2023-02-27T00:32:26;-0.60;92.20
23499;DHT22;11926;48.120;11.562;2023-02-27T00:35:14;-0.60;92.30
23499;DHT22;11926;48.120;11.562;2023-02-27T00:38:02;-0.60;92.30
23499;DHT22;11926;48.120;11.562;2023-02-27T00:40:50;-0.60;92.40
23499;DHT22;11926;48.120;11.562;2023-02-27T00:43:39;-0.50;92.40
23499;DHT22;11926;48.120;11.562;2023-02-27T00:46:27;-0.50;92.40
23499;DHT22;11926;48.120;11.562;2023-02-27T00:49:14;-0.50;92.40
23499;DHT22;11926;48.120;11.562;2023-02-27T00:52:04;-0.50;92.40
23499;DHT22;11926;48.120;11.562;2023-02-27T00:54:52;-0.50;92.40
23499;DHT22;11926;48.120;11.562;2023-02-27T00:57:40;-0.60;92.80
23499;DHT22;11926;48.120;11.562;2023-02-27T01:00:30;-0.60;92.40
23499;DHT22;11926;48.120;11.562;2023-02-27T01:03:18;-0.60;92.50
23499;DHT22;11926;48.120;11.562;2023-02-27T01:06:05;-0.70;92.50
23499;DHT22;11926;48.120;11.562;2023-02-27T01:08:53;-0.70;93.00
23499;DHT22;11926;48.120;11.562;2023-02-27T01:11:42;-0.70;92.70
23499;DHT22;11926;48.120;11.562;2023-02-27T01:14:30;-0.60;92.70
23499;DHT22;11926;48.120;11.562;2023-02-27T01:17:19;-0.60;92.70
23499;DHT22;11926;48.120;11.562;2023-02-27T01:20:10;-0.60;92.70
23499;DHT22;11926;48.120;11.562;2023-02-27T01:22:59;-0.60;92.70
23499;DHT22;11926;48.120;11.562;2023-02-27T01:25:47;-0.60;92.70
23499;DHT22;11926;48.120;11.562;2023-02-27T01:28:35;-0.60;92.70
23499;DHT22;11926;48.120;11.562;2023-02-27T01:31:23;-0.60;92.80
23499;DHT22;11926;48.120;11.562;2023-02-27T01:34:14;-0.70;92.80
23499;DHT22;11926;48.120;11.562;2023-02-27T01:37:02;-0.70;92.80
23499;DHT22;11926;48.120;11.562;2023-02-27T01:39:50;-0.70;92.80
23499;DHT22;11926;48.120;11.562;2023-02-27T01:42:37;-0.70;92.90
23499;DHT22;11926;48.120;11.562;2023-02-27T01:45:30;-0.80;92.60
23499;DHT22;11926;48.120;11.562;2023-02-27T01:48:21;-0.70;93.00
23499;DHT22;11926;48.120;11.562;2023-02-27T01:51:14;-0.80;92.90
23499;DHT22;11926;48.120;11.562;2023-02-27T01:54:06;-0.70;93.00
23499;DHT22;11926;48.120;11.562;2023-02-27T01:56:55;-0.70;93.00
23499;DHT22;11926;48.120;11.562;2023-02-27T01:59:43;-0.80;92.90
23499;DHT22;11926;48.120;11.562;2023-02-27T02:02:36;-0.80;93.00
23499;DHT22;11926;48.120;11.562;2023-02-27T02:05:25;-0.70;93.00
23499;DHT22;11926;48.120;11.562;2023-02-27T02:08:17;-0.80;92.90
23499;DHT22;11926;48.120;11.562;2023-02-27T02:11:07;-0.80;93.00
23499;DHT22;11926;48.120;11.562;2023-02-27T02:13:58;-0.80;93.00
23499;DHT22;11926;48.120;11.562;2023-02-27T02:17:01;-0.80;93.00
23499;DHT22;11926;48.120;11.562;2023-02-27T02:20:10;-0.80;93.00
23499;DHT22;11926;48.120;11.562;2023-02-27T02:23:26;-0.90;93.00
23499;DHT22;11926;48.120;11.562;2023-02-27T02:26:26;-0.80;93.00
23499;DHT22;11926;48.120;11.562;2023-02-27T02:35:49;-0.90;93.10
23499;DHT22;11926;48.120;11.562;2023-02-27T02:38:55;-0.90;93.10
23499;DHT22;11926;48.120;11.562;2023-02-27T02:41:54;-0.80;93.10
23499;DHT22;11926;48.120;11.562;2023-02-27T02:45:01;-0.90;93.10
23499;DHT22;11926;48.120;11.562;2023-02-27T02:48:00;-0.90;93.00
23499;DHT22;11926;48.120;11.562;2023-02-27T02:50:55;-0.90;93.10
23499;DHT22;11926;48.120;11.562;2023-02-27T02:53:50;-1.00;93.10
23499;DHT22;11926;48.120;11.562;2023-02-27T02:56:42;-1.00;93.10
23499;DHT22;11926;48.120;11.562;2023-02-27T02:59:35;-1.00;93.10
23499;DHT22;11926;48.120;11.562;2023-02-27T03:02:26;-1.00;93.10
23499;DHT22;11926;48.120;11.562;2023-02-27T03:05:21;-1.10;93.10
23499;DHT22;11926;48.120;11.562;2023-02-27T03:08:12;-1.00;93.20
23499;DHT22;11926;48.120;11.562;2023-02-27T03:11:05;-1.00;93.20
23499;DHT22;11926;48.120;11.562;2023-02-27T03:13:57;-1.00;93.20
23499;DHT22;11926;48.120;11.562;2023-02-27T03:16:49;-1.00;93.20
23499;DHT22;11926;48.120;11.562;2023-02-27T03:19:42;-1.00;93.10
23499;DHT22;11926;48.120;11.562;2023-02-27T03:22:35;-1.00;93.10
23499;DHT22;11926;48.120;11.562;2023-02-27T03:25:25;-1.00;93.10
23499;DHT22;11926;48.120;11.562;2023-02-27T03:28:20;-1.00;93.50
23499;DHT22;11926;48.120;11.562;2023-02-27T03:31:21;-1.00;93.20
23499;DHT22;11926;48.120;11.562;2023-02-27T03:34:17;-1.00;93.20
23499;DHT22;11926;48.120;11.562;2023-02-27T03:37:08;-1.00;93.20
23499;DHT22;11926;48.120;11.562;2023-02-27T03:40:08;-1.10;93.10
23499;DHT22;11926;48.120;11.562;2023-02-27T03:43:03;-1.00;93.20
23499;DHT22;11926;48.120;11.562;2023-02-27T03:46:07;-0.90;93.20
23499;DHT22;11926;48.120;11.562;2023-02-27T03:48:57;-0.90;93.20
23499;DHT22;11926;48.120;11.562;2023-02-27T03:51:45;-0.90;93.10
23499;DHT22;11926;48.120;11.562;2023-02-27T03:54:36;-0.90;93.20
23499;DHT22;11926;48.120;11.562;2023-02-27T03:57:27;-0.90;93.10
23499;DHT22;11926;48.120;11.562;2023-02-27T04:00:18;-0.90;93.20
23499;DHT22;11926;48.120;11.562;2023-02-27T04:03:07;-0.90;93.20
23499;DHT22;11926;48.120;11.562;2023-02-27T04:05:55;-0.80;93.20
23499;DHT22;11926;48.120;11.562;2023-02-27T04:09:06;-0.90;93.20
23499;DHT22;11926;48.120;11.562;2023-02-27T04:12:09;-0.90;93.10
23499;DHT22;11926;48.120;11.562;2023-02-27T04:15:06;-0.80;93.10
23499;DHT22;11926;48.120;11.562;2023-02-27T04:18:03;-0.80;93.20
23499;DHT22;11926;48.120;11.562;2023-02-27T04:21:03;-0.80;93.10
23499;DHT22;11926;48.120;11.562;2023-02-27T04:23:56;-0.80;93.10
23499;DHT22;11926;48.120;11.562;2023-02-27T04:26:53;-0.90;93.00
23499;DHT22;11926;48.120;11.562;2023-02-27T04:29:52;-0.80;93.10
23499;DHT22;11926;48.120;11.562;2023-02-27T04:32:47;-0.80;93.10
23499;DHT22;11926;48.120;11.562;2023-02-27T04:35:41;-0.80;93.10
23499;DHT22;11926;48.120;11.562;2023-02-27T04:38:36;-0.80;93.10
23499;DHT22;11926;48.120;11.562;2023-02-27T04:41:28;-0.80;93.10
23499;DHT22;11926;48.120;11.562;2023-02-27T04:44:18;-0.80;93.40
23499;DHT22;11926;48.120;11.562;2023-02-27T04:47:09;-0.80;93.00
23499;DHT22;11926;48.120;11.562;2023-02-27T04:50:00;-0.80;93.10
23499;DHT22;11926;48.120;11.562;2023-02-27T04:52:53;-0.80;93.00
23499;DHT22;11926;48.120;11.562;2023-02-27T04:55:46;-0.80;93.10
23499;DHT22;11926;48.120;11.562;2023-02-27T04:58:40;-0.80;93.00
23499;DHT22;11926;48.120;11.562;2023-02-27T05:01:35;-0.80;93.00
23499;DHT22;11926;48.120;11.562;2023-02-27T05:04:25;-0.70;93.00
23499;DHT22;11926;48.120;11.562;2023-02-27T05:07:17;-0.80;92.90
23499;DHT22;11926;48.120;11.562;2023-02-27T05:10:11;-0.80;92.90
23499;DHT22;11926;48.120;11.562;2023-02-27T05:13:06;-0.90;92.90
23499;DHT22;11926;48.120;11.562;2023-02-27T05:16:00;-0.90;92.90
23499;DHT22;11926;48.120;11.562;2023-02-27T05:18:49;-0.90;92.90
23499;DHT22;11926;48.120;11.562;2023-02-27T05:21:40;-1.00;92.90
23499;DHT22;11926;48.120;11.562;2023-02-27T05:24:36;-1.00;92.90
23499;DHT22;11926;48.120;11.562;2023-02-27T05:27:32;-1.00;93.00
23499;DHT22;11926;48.120;11.562;2023-02-27T05:30:28;-1.00;93.00
23499;DHT22;11926;48.120;11.562;2023-02-27T05:33:22;-1.00;93.00
23499;DHT22;11926;48.120;11.562;2023-02-27T05:36:15;-1.00;93.00
23499;DHT22;11926;48.120;11.562;2023-02-27T05:39:06;-1.00;93.00
23499;DHT22;11926;48.120;11.562;2023-02-27T05:41:57;-1.10;93.00
23499;DHT22;11926;48.120;11.562;2023-02-27T05:44:55;-1.10;93.00
23499;DHT22;11926;48.120;11.562;2023-02-27T05:47:52;-1.10;93.00
23499;DHT22;11926;48.120;11.562;2023-02-27T05:50:42;-1.10;93.00
23499;DHT22;11926;48.120;11.562;2023-02-27T05:53:32;-1.10;93.00
23499;DHT22;11926;48.120;11.562;2023-02-27T05:56:22;-1.10;93.00
23499;DHT22;11926;48.120;11.562;2023-02-27T05:59:15;-1.10;93.30
23499;DHT22;11926;48.120;11.562;2023-02-27T06:02:05;-1.20;93.00
23499;DHT22;11926;48.120;11.562;2023-02-27T06:04:55;-1.10;93.00
23499;DHT22;11926;48.120;11.562;2023-02-27T06:07:42;-1.10;93.00
23499;DHT22;11926;48.120;11.562;2023-02-27T06:10:30;-1.10;93.00
23499;DHT22;11926;48.120;11.562;2023-02-27T06:13:18;-1.10;93.00
23499;DHT22;11926;48.120;11.562;2023-02-27T06:16:09;-1.10;93.00
23499;DHT22;11926;48.120;11.562;2023-02-27T06:18:58;-1.10;93.00
23499;DHT22;11926;48.120;11.562;2023-02-27T06:21:51;-1.10;93.00
23499;DHT22;11926;48.120;11.562;2023-02-27T06:24:38;-1.10;93.00
23499;DHT22;11926;48.120;11.562;2023-02-27T06:27:26;-1.10;93.40
23499;DHT22;11926;48.120;11.562;2023-02-27T06:30:14;-1.10;93.00
23499;DHT22;11926;48.120;11.562;2023-02-27T06:33:02;-1.00;93.00
23499;DHT22;11926;48.120;11.562;2023-02-27T06:35:51;-1.00;93.00
23499;DHT22;11926;48.120;11.562;2023-02-27T06:38:40;-1.00;92.90
23499;DHT22;11926;48.120;11.562;2023-02-27T06:41:27;-1.00;92.90
23499;DHT22;11926;48.120;11.562;2023-02-27T06:44:15;-0.90;92.90
23499;DHT22;11926;48.120;11.562;2023-02-27T06:47:04;-0.90;92.90
23499;DHT22;11926;48.120;11.562;2023-02-27T06:49:52;-0.90;92.90
23499;DHT22;11926;48.120;11.562;2023-02-27T06:52:40;-0.80;93.20
23499;DHT22;11926;48.120;11.562;2023-02-27T06:55:29;-0.70;92.90
23499;DHT22;11926;48.120;11.562;2023-02-27T06:58:17;-0.70;92.80
23499;DHT22;11926;48.120;11.562;2023-02-27T07:01:05;-0.70;92.80
23499;DHT22;11926;48.120;11.562;2023-02-27T07:03:53;-0.60;92.80
23499;DHT22;11926;48.120;11.562;2023-02-27T07:06:41;-0.50;92.80
23499;DHT22;11926;48.120;11.562;2023-02-27T07:09:52;-0.50;92.70
23499;DHT22;11926;48.120;11.562;2023-02-27T07:12:43;-0.50;92.70
23499;DHT22;11926;48.120;11.562;2023-02-27T07:15:31;-0.50;92.60
23499;DHT22;11926;48.120;11.562;2023-02-27T07:18:18;-0.40;92.60
23499;DHT22;11926;48.120;11.562;2023-02-27T07:21:06;-0.30;92.50
23499;DHT22;11926;48.120;11.562;2023-02-27T07:23:53;-0.30;92.40
23499;DHT22;11926;48.120;11.562;2023-02-27T07:26:41;-0.30;92.40
23499;DHT22;11926;48.120;11.562;2023-02-27T07:29:30;-0.20;92.40
23499;DHT22;11926;48.120;11.562;2023-02-27T07:32:18;-0.20;92.30
23499;DHT22;11926;48.120;11.562;2023-02-27T07:35:08;-0.20;92.20
23499;DHT22;11926;48.120;11.562;2023-02-27T07:37:56;-0.10;92.20
23499;DHT22;11926;48.120;11.562;2023-02-27T07:40:44;-0.10;92.10
23499;DHT22;11926;48.120;11.562;2023-02-27T07:43:32;0.00;92.10
23499;DHT22;11926;48.120;11.562;2023-02-27T07:46:21;0.00;92.00
23499;DHT22;11926;48.120;11.562;2023-02-27T07:49:12;0.00;91.90
23499;DHT22;11926;48.120;11.562;2023-02-27T07:52:00;0.10;91.80
23499;DHT22;11926;48.120;11.562;2023-02-27T07:54:48;0.10;91.70
23499;DHT22;11926;48.120;11.562;2023-02-27T07:57:36;0.20;91.60
23499;DHT22;11926;48.120;11.562;2023-02-27T08:00:24;0.20;92.00
23499;DHT22;11926;48.120;11.562;2023-02-27T08:03:13;0.30;91.50
23499;DHT22;11926;48.120;11.562;2023-02-27T08:06:00;0.30;91.40
23499;DHT22;11926;48.120;11.562;2023-02-27T08:08:47;0.40;91.40
23499;DHT22;11926;48.120;11.562;2023-02-27T08:11:34;0.50;91.30
23499;DHT22;11926;48.120;11.562;2023-02-27T08:14:22;0.50;91.20
23499;DHT22;11926;48.120;11.562;2023-02-27T08:17:09;0.60;90.80
23499;DHT22;11926;48.120;11.562;2023-02-27T08:19:58;0.50;90.60
23499;DHT22;11926;48.120;11.562;2023-02-27T08:22:45;0.60;90.80
23499;DHT22;11926;48.120;11.562;2023-02-27T08:25:32;0.60;90.60
23499;DHT22;11926;48.120;11.562;2023-02-27T08:28:19;0.70;90.40
23499;DHT22;11926;48.120;11.562;2023-02-27T08:31:06;0.70;90.40
23499;DHT22;11926;48.120;11.562;2023-02-27T08:33:53;0.80;90.20
23499;DHT22;11926;48.120;11.562;2023-02-27T08:36:55;0.80;90.20
23499;DHT22;11926;48.120;11.562;2023-02-27T08:39:43;0.90;90.20
23499;DHT22;11926;48.120;11.562;2023-02-27T08:42:30;0.90;90.10
23499;DHT22;11926;48.120;11.562;2023-02-27T08:45:17;0.90;89.90
23499;DHT22;11926;48.120;11.562;2023-02-27T08:48:04;1.00;89.50
23499;DHT22;11926;48.120;11.562;2023-02-27T08:50:52;0.90;89.20
23499;DHT22;11926;48.120;11.562;2023-02-27T08:53:44;0.90;89.50
23499;DHT22;11926;48.120;11.562;2023-02-27T08:56:31;1.00;89.50
23499;DHT22;11926;48.120;11.562;2023-02-27T08:59:20;1.10;89.20
23499;DHT22;11926;48.120;11.562;2023-02-27T09:02:08;1.10;88.40
23499;DHT22;11926;48.120;11.562;2023-02-27T09:04:55;1.10;88.40
23499;DHT22;11926;48.120;11.562;2023-02-27T09:07:42;1.10;88.20
23499;DHT22;11926;48.120;11.562;2023-02-27T09:10:31;1.00;87.70
23499;DHT22;11926;48.120;11.562;2023-02-27T09:13:19;1.10;87.90
23499;DHT22;11926;48.120;11.562;2023-02-27T09:16:08;1.10;88.60
23499;DHT22;11926;48.120;11.562;2023-02-27T09:18:55;1.20;87.30
23499;DHT22;11926;48.120;11.562;2023-02-27T09:21:42;1.20;87.10
23499;DHT22;11926;48.120;11.562;2023-02-27T09:24:29;1.20;87.00
23499;DHT22;11926;48.120;11.562;2023-02-27T09:27:18;1.30;87.10
23499;DHT22;11926;48.120;11.562;2023-02-27T09:30:06;1.50;87.00
23499;DHT22;11926;48.120;11.562;2023-02-27T09:32:55;1.60;86.60
23499;DHT22;11926;48.120;11.562;2023-02-27T09:35:42;1.60;86.20
23499;DHT22;11926;48.120;11.562;2023-02-27T09:38:29;1.50;85.40
23499;DHT22;11926;48.120;11.562;2023-02-27T09:41:27;1.30;85.40
23499;DHT22;11926;48.120;11.562;2023-02-27T09:44:29;1.20;85.60
23499;DHT22;11926;48.120;11.562;2023-02-27T09:48:07;1.10;85.80
23499;DHT22;11926;48.120;11.562;2023-02-27T09:50:58;0.80;86.70
23499;DHT22;11926;48.120;11.562;2023-02-27T09:53:49;0.80;87.60
23499;DHT22;11926;48.120;11.562;2023-02-27T09:56:41;0.70;88.40
23499;DHT22;11926;48.120;11.562;2023-02-27T09:59:38;0.80;89.30
23499;DHT22;11926;48.120;11.562;2023-02-27T10:02:39;1.00;89.50
23499;DHT22;11926;48.120;11.562;2023-02-27T10:05:35;1.20;89.40
23499;DHT22;11926;48.120;11.562;2023-02-27T10:08:29;1.30;89.20
23499;DHT22;11926;48.120;11.562;2023-02-27T10:11:26;1.30;88.70
23499;DHT22;11926;48.120;11.562;2023-02-27T10:14:24;1.40;88.70
23499;DHT22;11926;48.120;11.562;2023-02-27T10:17:22;1.50;88.30
23499;DHT22;11926;48.120;11.562;2023-02-27T10:20:19;1.60;88.10
23499;DHT22;11926;48.120;11.562;2023-02-27T10:23:13;1.70;88.10
23499;DHT22;11926;48.120;11.562;2023-02-27T10:26:02;1.80;87.50
23499;DHT22;11926;48.120;11.562;2023-02-27T10:28:50;1.80;87.00
23499;DHT22;11926;48.120;11.562;2023-02-27T10:31:39;1.90;86.60
23499;DHT22;11926;48.120;11.562;2023-02-27T10:34:33;2.00;86.60
23499;DHT22;11926;48.120;11.562;2023-02-27T10:37:23;2.10;85.80
23499;DHT22;11926;48.120;11.562;2023-02-27T10:40:14;1.90;84.90
23499;DHT22;11926;48.120;11.562;2023-02-27T10:43:04;1.90;84.90
23499;DHT22;11926;48.120;11.562;2023-02-27T10:45:54;1.80;84.90
23499;DHT22;11926;48.120;11.562;2023-02-27T10:48:46;1.90;84.90
23499;DHT22;11926;48.120;11.562;2023-02-27T10:51:37;1.90;84.60
23499;DHT22;11926;48.120;11.562;2023-02-27T10:54:25;1.80;83.40
23499;DHT22;11926;48.120;11.562;2023-02-27T10:57:24;1.70;83.40
23499;DHT22;11926;48.120;11.562;2023-02-27T11:00:27;1.60;83.20
23499;DHT22;11926;48.120;11.562;2023-02-27T11:03:18;1.60;82.40
23499;DHT22;11926;48.120;11.562;2023-02-27T11:06:21;1.60;82.20
23499;DHT22;11926;48.120;11.562;2023-02-27T11:09:22;1.60;81.70
23499;DHT22;11926;48.120;11.562;2023-02-27T11:12:16;1.60;80.80
23499;DHT22;11926;48.120;11.562;2023-02-27T11:15:23;1.50;80.40
23499;DHT22;11926;48.120;11.562;2023-02-27T11:18:20;1.60;80.50
23499;DHT22;11926;48.120;11.562;2023-02-27T11:21:17;1.60;79.90
23499;DHT22;11926;48.120;11.562;2023-02-27T11:24:19;1.70;79.50
23499;DHT22;11926;48.120;11.562;2023-02-27T11:27:20;1.80;79.30
23499;DHT22;11926;48.120;11.562;2023-02-27T11:30:22;1.70;78.00
23499;DHT22;11926;48.120;11.562;2023-02-27T11:33:17;1.60;78.00
23499;DHT22;11926;48.120;11.562;2023-02-27T11:36:06;1.60;77.50
23499;DHT22;11926;48.120;11.562;2023-02-27T11:38:57;1.50;77.30
23499;DHT22;11926;48.120;11.562;2023-02-27T11:41:46;1.50;77.00
23499;DHT22;11926;48.120;11.562;2023-02-27T11:44:36;1.40;76.60
23499;DHT22;11926;48.120;11.562;2023-02-27T11:47:38;1.40;76.90
23499;DHT22;11926;48.120;11.562;2023-02-27T11:50:42;1.40;76.80
23499;DHT22;11926;48.120;11.562;2023-02-27T11:53:55;1.50;77.10
23499;DHT22;11926;48.120;11.562;2023-02-27T11:56:53;1.60;76.90
23499;DHT22;11926;48.120;11.562;2023-02-27T11:59:43;1.60;76.50
23499;DHT22;11926;48.120;11.562;2023-02-27T12:02:42;1.80;76.60
23499;DHT22;11926;48.120;11.562;2023-02-27T12:05:33;1.80;76.70
23499;DHT22;11926;48.120;11.562;2023-02-27T12:08:30;1.90;76.30
23499;DHT22;11926;48.120;11.562;2023-02-27T12:11:21;1.90;75.30
23499;DHT22;11926;48.120;11.562;2023-02-27T12:14:17;1.80;75.10
23499;DHT22;11926;48.120;11.562;2023-02-27T12:17:14;1.70;75.10
23499;DHT22;11926;48.120;11.562;2023-02-27T12:20:16;1.70;75.40
23499;DHT22;11926;48.120;11.562;2023-02-27T12:23:15;1.70;75.70
23499;DHT22;11926;48.120;11.562;2023-02-27T12:26:10;1.70;75.80
23499;DHT22;11926;48.120;11.562;2023-02-27T12:29:03;1.60;75.60
23499;DHT22;11926;48.120;11.562;2023-02-27T12:32:00;1.50;75.60
23499;DHT22;11926;48.120;11.562;2023-02-27T12:34:51;1.40;76.60
23499;DHT22;11926;48.120;11.562;2023-02-27T12:37:41;1.40;75.90
23499;DHT22;11926;48.120;11.562;2023-02-27T12:40:36;1.40;76.00
23499;DHT22;11926;48.120;11.562;2023-02-27T12:43:31;1.50;76.10
23499;DHT22;11926;48.120;11.562;2023-02-27T12:46:32;1.70;76.50
23499;DHT22;11926;48.120;11.562;2023-02-27T12:49:36;1.80;75.30
23499;DHT22;11926;48.120;11.562;2023-02-27T12:52:35;1.70;75.10
23499;DHT22;11926;48.120;11.562;2023-02-27T12:55:26;1.60;75.40
23499;DHT22;11926;48.120;11.562;2023-02-27T12:58:22;1.60;75.40
23499;DHT22;11926;48.120;11.562;2023-02-27T13:01:26;1.60;75.40
23499;DHT22;11926;48.120;11.562;2023-02-27T13:04:26;1.70;75.40
23499;DHT22;11926;48.120;11.562;2023-02-27T13:07:22;1.70;75.40
23499;DHT22;11926;48.120;11.562;2023-02-27T13:10:14;1.70;75.50
23499;DHT22;11926;48.120;11.562;2023-02-27T13:13:11;1.70;75.50
23499;DHT22;11926;48.120;11.562;2023-02-27T13:16:06;1.70;75.50
23499;DHT22;11926;48.120;11.562;2023-02-27T13:19:03;1.80;75.60
23499;DHT22;11926;48.120;11.562;2023-02-27T13:21:54;1.90;75.20
23499;DHT22;11926;48.120;11.562;2023-02-27T13:24:47;1.80;75.40
23499;DHT22;11926;48.120;11.562;2023-02-27T13:27:43;1.80;75.00
23499;DHT22;11926;48.120;11.562;2023-02-27T13:30:35;1.80;75.00
23499;DHT22;11926;48.120;11.562;2023-02-27T13:33:28;1.70;75.00
23499;DHT22;11926;48.120;11.562;2023-02-27T13:36:21;1.70;74.90
23499;DHT22;11926;48.120;11.562;2023-02-27T13:45:53;1.60;74.80
23499;DHT22;11926;48.120;11.562;2023-02-27T13:48:45;1.50;74.70
23499;DHT22;11926;48.120;11.562;2023-02-27T13:51:43;1.50;75.10
23499;DHT22;11926;48.120;11.562;2023-02-27T13:54:38;1.50;75.20
23499;DHT22;11926;48.120;11.562;2023-02-27T13:57:31;1.40;76.20
23499;DHT22;11926;48.120;11.562;2023-02-27T14:00:21;1.40;75.70
23499;DHT22;11926;48.120;11.562;2023-02-27T14:03:18;1.40;76.30
23499;DHT22;11926;48.120;11.562;2023-02-27T14:06:10;1.50;76.50
23499;DHT22;11926;48.120;11.562;2023-02-27T14:08:59;1.70;76.50
23499;DHT22;11926;48.120;11.562;2023-02-27T14:12:01;1.70;75.90
23499;DHT22;11926;48.120;11.562;2023-02-27T14:14:50;1.70;76.30
23499;DHT22;11926;48.120;11.562;2023-02-27T14:17:42;1.80;76.50
23499;DHT22;11926;48.120;11.562;2023-02-27T14:20:51;1.90;76.70
23499;DHT22;11926;48.120;11.562;2023-02-27T14:23:38;1.90;76.20
23499;DHT22;11926;48.120;11.562;2023-02-27T14:26:29;1.90;76.10
23499;DHT22;11926;48.120;11.562;2023-02-27T14:29:21;1.80;75.90
23499;DHT22;11926;48.120;11.562;2023-02-27T14:32:17;1.80;76.60
23499;DHT22;11926;48.120;11.562;2023-02-27T14:35:06;1.90;76.50
23499;DHT22;11926;48.120;11.562;2023-02-27T14:37:55;1.70;76.30
23499;DHT22;11926;48.120;11.562;2023-02-27T14:46:42;1.40;77.20
23499;DHT22;11926;48.120;11.562;2023-02-27T14:49:32;1.40;77.50
23499;DHT22;11926;48.120;11.562;2023-02-27T14:52:23;1.40;77.60
23499;DHT22;11926;48.120;11.562;2023-02-27T14:55:19;1.40;77.60
23499;DHT22;11926;48.120;11.562;2023-02-27T14:58:16;1.50;77.70
23499;DHT22;11926;48.120;11.562;2023-02-27T15:01:07;1.50;77.50
23499;DHT22;11926;48.120;11.562;2023-02-27T15:03:57;1.50;77.30
23499;DHT22;11926;48.120;11.562;2023-02-27T15:06:48;1.50;77.30
23499;DHT22;11926;48.120;11.562;2023-02-27T15:09:39;1.50;77.40
23499;DHT22;11926;48.120;11.562;2023-02-27T15:12:33;1.40;77.20
23499;DHT22;11926;48.120;11.562;2023-02-27T15:15:22;1.40;77.40
23499;DHT22;11926;48.120;11.562;2023-02-27T15:18:12;1.40;77.40
23499;DHT22;11926;48.120;11.562;2023-02-27T15:21:01;1.40;77.40
23499;DHT22;11926;48.120;11.562;2023-02-27T15:23:58;1.30;77.40
23499;DHT22;11926;48.120;11.562;2023-02-27T15:26:48;1.30;77.60
23499;DHT22;11926;48.120;11.562;2023-02-27T15:29:40;1.30;77.80
23499;DHT22;11926;48.120;11.562;2023-02-27T15:32:30;1.20;77.60
23499;DHT22;11926;48.120;11.562;2023-02-27T15:35:21;1.10;77.80
23499;DHT22;11926;48.120;11.562;2023-02-27T15:38:22;1.10;78.30
23499;DHT22;11926;48.120;11.562;2023-02-27T15:41:12;1.10;78.70
23499;DHT22;11926;48.120;11.562;2023-02-27T15:44:01;1.20;78.70
23499;DHT22;11926;48.120;11.562;2023-02-27T15:46:51;1.20;78.60
23499;DHT22;11926;48.120;11.562;2023-02-27T15:49:40;1.20;78.50
23499;DHT22;11926;48.120;11.562;2023-02-27T15:52:32;1.20;78.70
23499;DHT22;11926;48.120;11.562;2023-02-27T15:55:27;1.10;78.50
23499;DHT22;11926;48.120;11.562;2023-02-27T15:58:21;1.10;78.50
23499;DHT22;11926;48.120;11.562;2023-02-27T16:01:17;1.10;78.50
23499;DHT22;11926;48.120;11.562;2023-02-27T16:04:16;1.10;78.60
23499;DHT22;11926;48.120;11.562;2023-02-27T16:07:14;1.10;78.60
23499;DHT22;11926;48.120;11.562;2023-02-27T16:10:07;1.00;78.60
23499;DHT22;11926;48.120;11.562;2023-02-27T16:12:56;1.00;78.60
23499;DHT22;11926;48.120;11.562;2023-02-27T16:15:57;1.00;78.70
23499;DHT22;11926;48.120;11.562;2023-02-27T16:18:47;1.00;78.80
23499;DHT22;11926;48.120;11.562;2023-02-27T16:21:36;1.00;79.00
23499;DHT22;11926;48.120;11.562;2023-02-27T16:24:29;1.00;79.00
23499;DHT22;11926;48.120;11.562;2023-02-27T16:27:22;1.10;79.10
23499;DHT22;11926;48.120;11.562;2023-02-27T16:30:14;1.00;78.90
23499;DHT22;11926;48.120;11.562;2023-02-27T16:33:05;1.00;78.90
23499;DHT22;11926;48.120;11.562;2023-02-27T16:36:15;1.00;79.10
23499;DHT22;11926;48.120;11.562;2023-02-27T16:39:05;0.90;79.30
23499;DHT22;11926;48.120;11.562;2023-02-27T16:41:55;0.90;79.10
23499;DHT22;11926;48.120;11.562;2023-02-27T16:44:43;0.90;79.20
23499;DHT22;11926;48.120;11.562;2023-02-27T16:47:31;0.90;79.00
23499;DHT22;11926;48.120;11.562;2023-02-27T16:50:21;0.70;79.00
23499;DHT22;11926;48.120;11.562;2023-02-27T16:53:10;0.70;79.00
23499;DHT22;11926;48.120;11.562;2023-02-27T16:55:59;0.70;79.00
23499;DHT22;11926;48.120;11.562;2023-02-27T16:58:47;0.60;79.10
23499;DHT22;11926;48.120;11.562;2023-02-27T17:01:35;0.60;79.10
23499;DHT22;11926;48.120;11.562;2023-02-27T17:04:24;0.60;79.10
23499;DHT22;11926;48.120;11.562;2023-02-27T17:07:14;0.60;80.00
23499;DHT22;11926;48.120;11.562;2023-02-27T17:10:02;0.60;79.20
23499;DHT22;11926;48.120;11.562;2023-02-27T17:12:51;0.50;79.40
23499;DHT22;11926;48.120;11.562;2023-02-27T17:15:39;0.60;79.50
23499;DHT22;11926;48.120;11.562;2023-02-27T17:18:30;0.60;79.50
23499;DHT22;11926;48.120;11.562;2023-02-27T17:21:18;0.50;79.50
23499;DHT22;11926;48.120;11.562;2023-02-27T17:24:07;0.50;79.60
23499;DHT22;11926;48.120;11.562;2023-02-27T17:26:58;0.40;79.80
23499;DHT22;11926;48.120;11.562;2023-02-27T17:29:48;0.40;80.00
23499;DHT22;11926;48.120;11.562;2023-02-27T17:32:36;0.40;80.10
23499;DHT22;11926;48.120;11.562;2023-02-27T17:35:23;0.40;80.40
23499;DHT22;11926;48.120;11.562;2023-02-27T17:38:11;0.40;80.60
23499;DHT22;11926;48.120;11.562;2023-02-27T17:41:04;0.40;80.70
23499;DHT22;11926;48.120;11.562;2023-02-27T17:43:53;0.40;80.90
23499;DHT22;11926;48.120;11.562;2023-02-27T17:46:45;0.40;81.10
23499;DHT22;11926;48.120;11.562;2023-02-27T17:49:33;0.40;81.10
23499;DHT22;11926;48.120;11.562;2023-02-27T17:52:21;0.40;81.30
23499;DHT22;11926;48.120;11.562;2023-02-27T17:55:09;0.40;81.60
23499;DHT22;11926;48.120;11.562;2023-02-27T17:57:58;0.40;81.70
23499;DHT22;11926;48.120;11.562;2023-02-27T18:00:45;0.40;81.80
23499;DHT22;11926;48.120;11.562;2023-02-27T18:03:34;0.40;82.00
23499;DHT22;11926;48.120;11.562;2023-02-27T18:06:23;0.30;82.20
23499;DHT22;11926;48.120;11.562;2023-02-27T18:09:11;0.30;83.40
23499;DHT22;11926;48.120;11.562;2023-02-27T18:11:59;0.40;82.60
23499;DHT22;11926;48.120;11.562;2023-02-27T18:14:47;0.40;82.60
23499;DHT22;11926;48.120;11.562;2023-02-27T18:17:35;0.30;82.90
23499;DHT22;11926;48.120;11.562;2023-02-27T18:20:28;0.30;83.10